createdAt,value
2018-01-22T00:01:25.126Z,1012.5
2018-01-22T00:02:25.142Z,1012.46
2018-01-22T00:03:25.160Z,1012.47
2018-01-22T00:04:25.166Z,1012.46
2018-01-22T00:05:25.187Z,1012.44
2018-01-22T00:06:25.194Z,1012.43
2018-01-22T00:07:25.214Z,1012.43
2018-01-22T00:08:25.227Z,1012.35
2018-01-22T00:09:25.235Z,1012.32
2018-01-22T00:10:25.248Z,1012.3
2018-01-22T00:11:25.264Z,1012.27
2018-01-22T00:12:25.282Z,1012.22
2018-01-22T00:13:25.290Z,1012.16
2018-01-22T00:14:25.303Z,1012.19
2018-01-22T00:15:25.318Z,1012.19
2018-01-22T00:16:25.338Z,1012.16
2018-01-22T00:17:25.346Z,1012.22
2018-01-22T00:18:25.366Z,1012.2
2018-01-22T00:19:25.432Z,1012.14
2018-01-22T00:20:25.385Z,1012.19
2018-01-22T00:21:25.400Z,1012.24
2018-01-22T00:22:25.414Z,1012.14
2018-01-22T00:23:25.428Z,1012.15
2018-01-22T00:24:25.440Z,1012.11
2018-01-22T00:25:25.454Z,1012.1
2018-01-22T00:26:25.474Z,1012.13
2018-01-22T00:27:25.482Z,1012.15
2018-01-22T00:28:25.501Z,1012.1
2018-01-22T00:29:25.517Z,1012.07
2018-01-22T00:30:25.523Z,1012.01
2018-01-22T00:31:25.536Z,1012
2018-01-22T00:33:25.565Z,1011.98
2018-01-22T00:34:25.578Z,1011.98
2018-01-22T00:35:25.592Z,1012.01
2018-01-22T00:36:25.605Z,1012.03
2018-01-22T00:37:25.631Z,1011.99
2018-01-22T00:38:25.635Z,1012.01
2018-01-22T00:39:25.646Z,1011.99
2018-01-22T00:40:25.666Z,1011.99
2018-01-22T00:41:25.674Z,1011.95
2018-01-22T00:42:25.686Z,1011.96
2018-01-22T00:43:25.701Z,1011.9
2018-01-22T00:44:25.722Z,1011.91
2018-01-22T00:45:25.736Z,1011.88
2018-01-22T00:46:25.741Z,1011.89
2018-01-22T00:47:25.762Z,1011.84
2018-01-22T00:49:25.783Z,1011.81
2018-01-22T00:50:25.797Z,1011.79
2018-01-22T00:51:25.811Z,1011.77
2018-01-22T00:52:25.925Z,1011.76
2018-01-22T00:53:25.838Z,1011.8
2018-01-22T00:54:25.852Z,1011.84
2018-01-22T00:55:25.866Z,1011.79
2018-01-22T00:56:25.878Z,1011.8
2018-01-22T00:57:25.899Z,1011.78
2018-01-22T00:58:25.906Z,1011.75
2018-01-22T00:59:25.921Z,1011.75
2018-01-22T01:00:25.939Z,1011.76
2018-01-22T01:01:25.946Z,1011.74
2018-01-22T01:02:25.966Z,1011.75
2018-01-22T01:03:25.975Z,1011.78
2018-01-22T01:05:26.008Z,1011.7
2018-01-22T01:06:26.015Z,1011.72
2018-01-22T01:07:26.029Z,1011.67
2018-01-22T01:08:26.042Z,1011.64
2018-01-22T01:09:26.062Z,1011.62
2018-01-22T01:10:26.069Z,1011.6
2018-01-22T01:11:26.084Z,1011.57
2018-01-22T01:12:26.096Z,1011.57
2018-01-22T01:13:26.117Z,1011.5
2018-01-22T01:14:26.124Z,1011.5
2018-01-22T01:15:26.137Z,1011.5
2018-01-22T01:16:26.150Z,1011.47
2018-01-22T01:17:26.164Z,1011.47
2018-01-22T01:18:26.179Z,1011.42
2018-01-22T01:19:26.192Z,1011.37
2018-01-22T01:21:26.226Z,1011.37
2018-01-22T01:22:26.240Z,1011.36
2018-01-22T01:23:26.247Z,1011.38
2018-01-22T01:24:26.267Z,1011.35
2018-01-22T01:25:26.280Z,1011.35
2018-01-22T01:26:26.294Z,1011.39
2018-01-22T01:27:26.300Z,1011.36
2018-01-22T01:28:26.328Z,1011.4
2018-01-22T01:29:26.329Z,1011.38
2018-01-22T01:30:26.340Z,1011.36
2018-01-22T01:31:26.354Z,1011.42
2018-01-22T01:32:26.369Z,1011.37
2018-01-22T01:33:26.383Z,1011.36
2018-01-22T01:34:26.396Z,1011.33
2018-01-22T01:36:26.424Z,1011.34
2018-01-22T01:37:26.438Z,1011.33
2018-01-22T01:38:26.450Z,1011.32
2018-01-22T01:39:26.471Z,1011.36
2018-01-22T01:40:26.478Z,1011.31
2018-01-22T01:41:26.492Z,1011.27
2018-01-22T01:42:26.505Z,1011.32
2018-01-22T01:43:26.520Z,1011.31
2018-01-22T01:44:26.532Z,1011.33
2018-01-22T01:45:26.545Z,1011.27
2018-01-22T01:46:26.559Z,1011.24
2018-01-22T01:47:26.574Z,1011.23
2018-01-22T01:48:26.586Z,1011.2
2018-01-22T01:49:26.600Z,1011.16
2018-01-22T01:50:26.620Z,1011.19
2018-01-22T01:51:26.628Z,1011.13
2018-01-22T01:52:26.650Z,1011.15
2018-01-22T01:53:26.653Z,1011.17
2018-01-22T01:54:26.674Z,1011.11
2018-01-22T01:55:26.680Z,1011.1
2018-01-22T01:56:26.701Z,1011.08
2018-01-22T01:57:26.717Z,1011.12
2018-01-22T01:58:26.729Z,1011.11
2018-01-22T01:59:26.735Z,1011.08
2018-01-22T02:00:26.749Z,1011.09
2018-01-22T02:01:26.768Z,1011.03
2018-01-22T02:02:26.776Z,1011.04
2018-01-22T02:03:26.789Z,1011.06
2018-01-22T02:04:26.810Z,1011.02
2018-01-22T02:05:26.817Z,1010.94
2018-01-22T02:06:26.836Z,1010.93
2018-01-22T02:08:26.856Z,1010.95
2018-01-22T02:09:26.872Z,1010.94
2018-01-22T02:10:26.889Z,1010.88
2018-01-22T02:11:26.900Z,1010.91
2018-01-22T02:12:26.913Z,1010.88
2018-01-22T02:13:26.930Z,1010.87
2018-01-22T02:14:26.937Z,1010.84
2018-01-22T02:15:26.950Z,1010.82
2018-01-22T02:16:26.966Z,1010.78
2018-01-22T02:17:26.978Z,1010.74
2018-01-22T02:18:26.998Z,1010.7
2018-01-22T02:19:27.004Z,1010.63
2018-01-22T02:20:27.018Z,1010.62
2018-01-22T02:21:27.038Z,1010.62
2018-01-22T02:22:27.046Z,1010.56
2018-01-22T02:24:27.072Z,1010.58
2018-01-22T02:25:27.086Z,1010.49
2018-01-22T02:26:27.106Z,1010.46
2018-01-22T02:27:27.113Z,1010.49
2018-01-22T02:28:27.125Z,1010.5
2018-01-22T02:29:27.140Z,1010.48
2018-01-22T02:30:27.153Z,1010.5
2018-01-22T02:31:27.169Z,1010.44
2018-01-22T02:32:27.180Z,1010.39
2018-01-22T02:33:27.194Z,1010.42
2018-01-22T02:34:27.213Z,1010.44
2018-01-22T02:35:27.330Z,1010.44
2018-01-22T02:36:27.234Z,1010.47
2018-01-22T02:37:27.255Z,1010.46
2018-01-22T02:38:27.261Z,1010.44
2018-01-22T02:40:27.295Z,1010.41
2018-01-22T02:41:27.310Z,1010.36
2018-01-22T02:42:27.317Z,1010.31
2018-01-22T02:43:27.330Z,1010.34
2018-01-22T02:44:27.342Z,1010.36
2018-01-22T02:45:27.363Z,1010.37
2018-01-22T02:46:27.370Z,1010.36
2018-01-22T02:47:27.382Z,1010.34
2018-01-22T02:48:27.397Z,1010.3
2018-01-22T02:49:27.418Z,1010.25
2018-01-22T02:50:27.424Z,1010.3
2018-01-22T02:51:27.444Z,1010.25
2018-01-22T02:52:27.457Z,1010.29
2018-01-22T02:53:27.470Z,1010.31
2018-01-22T02:54:27.481Z,1010.27
2018-01-22T02:56:27.505Z,1010.2
2018-01-22T02:57:27.519Z,1010.19
2018-01-22T02:58:27.531Z,1010.11
2018-01-22T02:59:27.551Z,1010.21
2018-01-22T03:00:27.559Z,1010.16
2018-01-22T03:01:27.580Z,1010.16
2018-01-22T03:02:27.586Z,1010.17
2018-01-22T03:03:27.606Z,1010.16
2018-01-22T03:04:27.619Z,1010.15
2018-01-22T03:05:27.633Z,1010.1
2018-01-22T03:06:27.640Z,1010.1
2018-01-22T03:07:27.660Z,1010.11
2018-01-22T03:08:27.666Z,1010.11
2018-01-22T03:09:27.680Z,1010.12
2018-01-22T03:11:27.710Z,1010.09
2018-01-22T03:12:27.727Z,1010.05
2018-01-22T03:13:27.734Z,1010.02
2018-01-22T03:14:27.748Z,1010
2018-01-22T03:15:27.762Z,1009.93
2018-01-22T03:16:27.774Z,1009.97
2018-01-22T03:17:27.794Z,1009.97
2018-01-22T03:18:27.809Z,1010.02
2018-01-22T03:19:27.822Z,1010.01
2018-01-22T03:20:27.831Z,1009.96
2018-01-22T03:21:27.843Z,1009.99
2018-01-22T03:22:27.856Z,1010
2018-01-22T03:23:27.868Z,1010.05
2018-01-22T03:24:27.882Z,1010.03
2018-01-22T03:25:27.896Z,1010.01
2018-01-22T03:26:27.911Z,1010
2018-01-22T03:27:27.930Z,1010.03
2018-01-22T03:28:27.936Z,1010.01
2018-01-22T03:29:27.951Z,1009.96
2018-01-22T03:30:27.971Z,1009.99
2018-01-22T03:31:27.984Z,1010.01
2018-01-22T03:32:27.997Z,1009.97
2018-01-22T03:33:28.104Z,1010.01
2018-01-22T03:34:28.016Z,1009.99
2018-01-22T03:35:28.032Z,1010
2018-01-22T03:36:28.044Z,1010.01
2018-01-22T03:37:28.064Z,1010.01
2018-01-22T03:38:28.071Z,1010.02
2018-01-22T03:39:28.084Z,1009.98
2018-01-22T03:40:28.099Z,1009.96
2018-01-22T03:41:28.111Z,1009.95
2018-01-22T03:43:28.238Z,1010.02
2018-01-22T03:44:28.159Z,1009.98
2018-01-22T03:45:28.169Z,1009.98
2018-01-22T03:46:28.185Z,1009.95
2018-01-22T03:47:28.199Z,1009.92
2018-01-22T03:48:28.207Z,1009.93
2018-01-22T03:49:28.218Z,1009.94
2018-01-22T03:50:28.233Z,1009.93
2018-01-22T03:51:28.253Z,1009.92
2018-01-22T03:52:28.260Z,1009.9
2018-01-22T03:53:28.280Z,1009.86
2018-01-22T03:54:28.286Z,1009.83
2018-01-22T03:55:28.408Z,1009.91
2018-01-22T03:56:28.313Z,1009.9
2018-01-22T03:57:28.329Z,1009.93
2018-01-22T03:59:28.362Z,1009.85
2018-01-22T04:00:28.378Z,1009.87
2018-01-22T04:01:28.381Z,1009.81
2018-01-22T04:02:28.401Z,1009.76
2018-01-22T04:03:28.407Z,1009.8
2018-01-22T04:04:28.421Z,1009.74
2018-01-22T04:05:28.442Z,1009.76
2018-01-22T04:06:28.448Z,1009.75
2018-01-22T04:07:28.462Z,1009.72
2018-01-22T04:08:28.475Z,1009.71
2018-01-22T04:09:28.490Z,1009.72
2018-01-22T04:10:28.503Z,1009.66
2018-01-22T04:11:28.514Z,1009.67
2018-01-22T04:12:28.534Z,1009.64
2018-01-22T04:13:28.548Z,1009.65
2018-01-22T04:15:28.570Z,1009.61
2018-01-22T04:16:28.583Z,1009.59
2018-01-22T04:17:28.598Z,1009.59
2018-01-22T04:18:28.608Z,1009.57
2018-01-22T04:19:28.622Z,1009.54
2018-01-22T04:20:28.635Z,1009.52
2018-01-22T04:21:28.649Z,1009.53
2018-01-22T04:22:28.662Z,1009.55
2018-01-22T04:23:28.682Z,1009.55
2018-01-22T04:24:28.690Z,1009.58
2018-01-22T04:25:28.702Z,1009.55
2018-01-22T04:26:28.715Z,1009.57
2018-01-22T04:27:28.729Z,1009.5
2018-01-22T04:28:28.749Z,1009.46
2018-01-22T04:29:28.762Z,1009.45
2018-01-22T04:31:28.782Z,1009.43
2018-01-22T04:32:28.802Z,1009.41
2018-01-22T04:33:28.808Z,1009.46
2018-01-22T04:34:28.828Z,1009.39
2018-01-22T04:35:28.835Z,1009.42
2018-01-22T04:36:28.856Z,1009.39
2018-01-22T04:37:28.863Z,1009.34
2018-01-22T04:38:28.875Z,1009.34
2018-01-22T04:39:28.896Z,1009.32
2018-01-22T04:40:28.909Z,1009.28
2018-01-22T04:41:28.915Z,1009.22
2018-01-22T04:42:28.928Z,1009.17
2018-01-22T04:43:28.943Z,1009.09
2018-01-22T04:44:28.956Z,1009.07
2018-01-22T04:46:28.989Z,1009.02
2018-01-22T04:47:29.054Z,1008.96
2018-01-22T04:48:29.031Z,1008.95
2018-01-22T04:49:29.028Z,1008.95
2018-01-22T04:50:29.043Z,1008.91
2018-01-22T04:51:29.054Z,1008.91
2018-01-22T04:52:29.061Z,1008.92
2018-01-22T04:53:29.076Z,1008.94
2018-01-22T04:54:29.088Z,1008.83
2018-01-22T04:55:29.100Z,1008.88
2018-01-22T04:56:29.121Z,1008.88
2018-01-22T04:57:29.135Z,1008.86
2018-01-22T04:58:29.140Z,1008.85
2018-01-22T04:59:29.154Z,1008.83
2018-01-22T05:00:29.168Z,1008.82
2018-01-22T05:01:29.186Z,1008.83
2018-01-22T05:02:29.200Z,1008.87
2018-01-22T05:03:29.206Z,1008.83
2018-01-22T05:04:29.219Z,1008.87
2018-01-22T05:05:29.235Z,1008.85
2018-01-22T05:06:29.244Z,1008.82
2018-01-22T05:07:29.265Z,1008.81
2018-01-22T05:08:29.278Z,1008.76
2018-01-22T05:09:29.285Z,1008.75
2018-01-22T05:10:29.298Z,1008.67
2018-01-22T05:11:29.310Z,1008.68
2018-01-22T05:12:29.331Z,1008.67
2018-01-22T05:13:29.343Z,1008.65
2018-01-22T05:14:29.352Z,1008.64
2018-01-22T05:15:29.369Z,1008.65
2018-01-22T05:16:29.375Z,1008.59
2018-01-22T05:18:29.408Z,1008.58
2018-01-22T05:19:29.415Z,1008.58
2018-01-22T05:20:29.434Z,1008.51
2018-01-22T05:21:29.440Z,1008.55
2018-01-22T05:22:29.460Z,1008.51
2018-01-22T05:23:29.467Z,1008.46
2018-01-22T05:24:29.479Z,1008.41
2018-01-22T05:25:29.505Z,1008.44
2018-01-22T05:26:29.506Z,1008.47
2018-01-22T05:27:29.525Z,1008.5
2018-01-22T05:28:29.539Z,1008.48
2018-01-22T05:29:29.546Z,1008.49
2018-01-22T05:30:29.559Z,1008.47
2018-01-22T05:31:29.577Z,1008.41
2018-01-22T05:32:29.589Z,1008.35
2018-01-22T05:34:29.616Z,1008.33
2018-01-22T05:35:29.628Z,1008.34
2018-01-22T05:36:29.635Z,1008.4
2018-01-22T05:37:29.648Z,1008.4
2018-01-22T05:38:29.667Z,1008.44
2018-01-22T05:39:29.683Z,1008.43
2018-01-22T05:40:29.687Z,1008.46
2018-01-22T05:41:29.701Z,1008.46
2018-01-22T05:42:29.712Z,1008.43
2018-01-22T05:43:29.732Z,1008.44
2018-01-22T05:44:29.739Z,1008.44
2018-01-22T05:45:29.761Z,1008.48
2018-01-22T05:46:29.763Z,1008.44
2018-01-22T05:47:29.777Z,1008.44
2018-01-22T05:48:29.798Z,1008.47
2018-01-22T05:50:29.823Z,1008.46
2018-01-22T05:51:29.835Z,1008.49
2018-01-22T05:52:29.843Z,1008.46
2018-01-22T05:53:29.855Z,1008.48
2018-01-22T05:54:29.868Z,1008.53
2018-01-22T05:55:29.881Z,1008.52
2018-01-22T05:56:29.994Z,1008.54
2018-01-22T05:57:29.913Z,1008.53
2018-01-22T05:58:29.918Z,1008.53
2018-01-22T05:59:29.932Z,1008.54
2018-01-22T06:00:29.950Z,1008.52
2018-01-22T06:01:29.956Z,1008.51
2018-01-22T06:02:30.077Z,1008.52
2018-01-22T06:03:29.984Z,1008.49
2018-01-22T06:04:29.996Z,1008.5
2018-01-22T06:06:30.029Z,1008.42
2018-01-22T06:07:30.036Z,1008.39
2018-01-22T06:08:30.047Z,1008.43
2018-01-22T06:09:30.060Z,1008.37
2018-01-22T06:10:30.074Z,1008.42
2018-01-22T06:11:30.085Z,1008.37
2018-01-22T06:12:30.099Z,1008.35
2018-01-22T06:13:30.118Z,1008.31
2018-01-22T06:14:30.132Z,1008.28
2018-01-22T06:15:30.190Z,1008.24
2018-01-22T06:16:30.150Z,1008.2
2018-01-22T06:17:30.170Z,1008.19
2018-01-22T06:18:30.183Z,1008.18
2018-01-22T06:19:30.189Z,1008.17
2018-01-22T06:21:30.215Z,1008.19
2018-01-22T06:22:30.235Z,1008.15
2018-01-22T06:23:30.248Z,1008.1
2018-01-22T06:24:30.265Z,1008.08
2018-01-22T06:25:30.268Z,1008.09
2018-01-22T06:26:30.279Z,1008.05
2018-01-22T06:27:30.294Z,1007.99
2018-01-22T06:28:30.307Z,1007.98
2018-01-22T06:29:30.318Z,1007.94
2018-01-22T06:30:30.338Z,1007.99
2018-01-22T06:31:30.352Z,1008.01
2018-01-22T06:32:30.358Z,1007.99
2018-01-22T06:33:30.371Z,1007.97
2018-01-22T06:34:30.384Z,1007.98
2018-01-22T06:35:30.397Z,1007.99
2018-01-22T06:36:30.409Z,1007.94
2018-01-22T06:37:30.423Z,1007.85
2018-01-22T06:38:30.441Z,1007.84
2018-01-22T06:39:30.448Z,1007.83
2018-01-22T06:40:30.461Z,1007.84
2018-01-22T06:41:30.573Z,1007.81
2018-01-22T06:42:30.487Z,1007.8
2018-01-22T06:43:30.500Z,1007.81
2018-01-22T06:44:30.519Z,1007.77
2018-01-22T06:45:30.526Z,1007.8
2018-01-22T06:46:30.545Z,1007.77
2018-01-22T06:47:30.552Z,1007.78
2018-01-22T06:48:30.571Z,1007.8
2018-01-22T06:49:30.578Z,1007.82
2018-01-22T06:50:30.592Z,1007.85
2018-01-22T06:51:30.703Z,1007.81
2018-01-22T06:53:30.628Z,1007.67
2018-01-22T06:54:30.641Z,1007.59
2018-01-22T06:55:30.660Z,1007.6
2018-01-22T06:56:30.682Z,1007.62
2018-01-22T06:57:30.687Z,1007.65
2018-01-22T06:58:30.696Z,1007.66
2018-01-22T06:59:30.705Z,1007.69
2018-01-22T07:00:30.725Z,1007.71
2018-01-22T07:01:30.731Z,1007.64
2018-01-22T07:02:30.749Z,1007.63
2018-01-22T07:03:30.756Z,1007.6
2018-01-22T07:04:30.770Z,1007.59
2018-01-22T07:05:30.793Z,1007.62
2018-01-22T07:06:30.795Z,1007.69
2018-01-22T07:07:30.807Z,1007.69
2018-01-22T07:09:30.834Z,1007.74
2018-01-22T07:10:30.846Z,1007.69
2018-01-22T07:11:30.866Z,1007.68
2018-01-22T07:12:30.980Z,1007.7
2018-01-22T07:13:30.891Z,1007.6
2018-01-22T07:14:30.903Z,1007.64
2018-01-22T07:15:30.931Z,1007.61
2018-01-22T07:16:30.924Z,1007.67
2018-01-22T07:17:30.936Z,1007.68
2018-01-22T07:18:30.950Z,1007.7
2018-01-22T07:19:30.965Z,1007.72
2018-01-22T07:20:30.982Z,1007.76
2018-01-22T07:21:30.994Z,1007.78
2018-01-22T07:22:31.007Z,1007.8
2018-01-22T07:23:31.013Z,1007.79
2018-01-22T07:25:31.046Z,1007.82
2018-01-22T07:26:31.052Z,1007.8
2018-01-22T07:27:31.067Z,1007.87
2018-01-22T07:28:31.077Z,1007.92
2018-01-22T07:29:31.097Z,1007.98
2018-01-22T07:30:31.104Z,1008.02
2018-01-22T07:31:31.117Z,1008.04
2018-01-22T07:32:31.128Z,1008.07
2018-01-22T07:33:31.146Z,1008.09
2018-01-22T07:34:31.162Z,1008.08
2018-01-22T07:35:31.214Z,1008.06
2018-01-22T07:36:31.189Z,1008.06
2018-01-22T07:37:31.194Z,1008.08
2018-01-22T07:38:31.208Z,1008.1
2018-01-22T07:39:31.226Z,1008.13
2018-01-22T07:41:31.245Z,1008.15
2018-01-22T07:42:31.266Z,1008.16
2018-01-22T07:43:31.278Z,1008.18
2018-01-22T07:44:31.285Z,1008.15
2018-01-22T07:45:31.297Z,1008.11
2018-01-22T07:46:31.317Z,1008.03
2018-01-22T07:47:31.324Z,1008.01
2018-01-22T07:48:31.337Z,1007.99
2018-01-22T07:49:31.350Z,1008.02
2018-01-22T07:50:31.363Z,1007.98
2018-01-22T07:51:31.376Z,1008.02
2018-01-22T07:52:31.390Z,1007.98
2018-01-22T07:53:31.401Z,1008.01
2018-01-22T07:54:31.416Z,1008.05
2018-01-22T07:56:31.447Z,1008.07
2018-01-22T07:57:31.459Z,1008.01
2018-01-22T07:58:31.480Z,1007.97
2018-01-22T07:59:31.534Z,1007.96
2018-01-22T08:00:31.494Z,1007.97
2018-01-22T08:01:31.513Z,1007.98
2018-01-22T08:02:31.526Z,1007.94
2018-01-22T08:03:31.534Z,1007.94
2018-01-22T08:04:31.653Z,1007.95
2018-01-22T08:05:31.559Z,1007.95
2018-01-22T08:06:31.580Z,1007.94
2018-01-22T08:07:31.608Z,1007.92
2018-01-22T08:08:31.606Z,1007.92
2018-01-22T08:09:31.611Z,1007.85
2018-01-22T08:10:31.626Z,1007.87
2018-01-22T08:11:31.638Z,1007.83
2018-01-22T08:12:31.657Z,1007.86
2018-01-22T08:13:31.664Z,1007.81
2018-01-22T08:14:31.677Z,1007.86
2018-01-22T08:15:31.691Z,1007.89
2018-01-22T08:16:31.703Z,1007.9
2018-01-22T08:17:31.718Z,1007.89
2018-01-22T08:18:31.737Z,1007.89
2018-01-22T08:19:31.745Z,1007.89
2018-01-22T08:20:31.756Z,1007.83
2018-01-22T08:21:31.772Z,1007.79
2018-01-22T08:22:31.790Z,1007.86
2018-01-22T08:23:31.795Z,1007.86
2018-01-22T08:24:31.808Z,1007.86
2018-01-22T08:25:31.827Z,1007.85
2018-01-22T08:26:31.881Z,1007.92
2018-01-22T08:28:31.869Z,1007.94
2018-01-22T08:29:31.874Z,1007.98
2018-01-22T08:30:31.887Z,1008.04
2018-01-22T08:31:31.907Z,1008.03
2018-01-22T08:32:31.914Z,1008.06
2018-01-22T08:33:31.927Z,1008.02
2018-01-22T08:34:31.940Z,1007.98
2018-01-22T08:35:31.953Z,1007.93
2018-01-22T08:36:31.966Z,1007.86
2018-01-22T08:37:31.985Z,1007.82
2018-01-22T08:38:32.000Z,1007.79
2018-01-22T08:39:32.007Z,1007.74
2018-01-22T08:40:32.020Z,1007.68
2018-01-22T08:41:32.033Z,1007.69
2018-01-22T08:42:32.046Z,1007.7
2018-01-22T08:44:32.072Z,1007.62
2018-01-22T08:45:32.091Z,1007.67
2018-01-22T08:46:32.110Z,1007.69
2018-01-22T08:47:32.113Z,1007.63
2018-01-22T08:48:32.124Z,1007.65
2018-01-22T08:49:32.138Z,1007.62
2018-01-22T08:50:32.158Z,1007.55
2018-01-22T08:51:32.166Z,1007.56
2018-01-22T08:52:32.180Z,1007.54
2018-01-22T08:53:32.191Z,1007.51
2018-01-22T08:54:32.212Z,1007.55
2018-01-22T08:55:32.219Z,1007.5
2018-01-22T08:56:32.231Z,1007.55
2018-01-22T08:57:32.246Z,1007.52
2018-01-22T08:58:32.258Z,1007.55
2018-01-22T09:00:32.285Z,1007.57
2018-01-22T09:01:32.305Z,1007.53
2018-01-22T09:02:32.312Z,1007.59
2018-01-22T09:03:32.324Z,1007.57
2018-01-22T09:04:32.339Z,1007.59
2018-01-22T09:05:32.352Z,1007.61
2018-01-22T09:06:32.373Z,1007.52
2018-01-22T09:07:32.385Z,1007.43
2018-01-22T09:08:32.399Z,1007.46
2018-01-22T09:09:32.406Z,1007.44
2018-01-22T09:10:32.426Z,1007.42
2018-01-22T09:11:32.438Z,1007.44
2018-01-22T09:12:32.446Z,1007.46
2018-01-22T09:13:32.461Z,1007.43
2018-01-22T09:14:32.473Z,1007.43
2018-01-22T09:16:32.501Z,1007.35
2018-01-22T09:17:32.519Z,1007.31
2018-01-22T09:18:32.534Z,1007.25
2018-01-22T09:19:32.641Z,1007.32
2018-01-22T09:20:32.561Z,1007.34
2018-01-22T09:21:32.568Z,1007.37
2018-01-22T09:22:32.588Z,1007.42
2018-01-22T09:23:32.597Z,1007.35
2018-01-22T09:24:32.619Z,1007.38
2018-01-22T09:25:32.632Z,1007.46
2018-01-22T09:26:32.641Z,1007.49
2018-01-22T09:27:32.670Z,1007.4
2018-01-22T09:28:32.668Z,1007.46
2018-01-22T09:29:32.687Z,1007.38
2018-01-22T09:31:32.710Z,1007.42
2018-01-22T09:32:32.723Z,1007.35
2018-01-22T09:33:32.738Z,1007.35
2018-01-22T09:34:32.759Z,1007.41
2018-01-22T09:35:32.773Z,1007.37
2018-01-22T09:36:32.788Z,1007.33
2018-01-22T09:37:32.801Z,1007.36
2018-01-22T09:38:32.817Z,1007.29
2018-01-22T09:39:32.824Z,1007.32
2018-01-22T09:40:32.839Z,1007.34
2018-01-22T09:41:32.872Z,1007.32
2018-01-22T09:42:32.867Z,1007.3
2018-01-22T09:43:32.881Z,1007.31
2018-01-22T09:44:32.897Z,1007.24
2018-01-22T09:45:32.911Z,1007.28
2018-01-22T09:46:32.936Z,1007.23
2018-01-22T09:47:32.941Z,1007.22
2018-01-22T09:48:32.961Z,1007.26
2018-01-22T09:49:32.969Z,1007.25
2018-01-22T09:50:32.984Z,1007.23
2018-01-22T09:51:32.998Z,1007.19
2018-01-22T09:52:33.013Z,1007.21
2018-01-22T09:53:33.035Z,1007.17
2018-01-22T09:54:33.142Z,1007.21
2018-01-22T09:55:33.063Z,1007.18
2018-01-22T09:56:33.072Z,1007.17
2018-01-22T09:57:33.088Z,1007.17
2018-01-22T09:58:33.101Z,1007.15
2018-01-22T09:59:33.222Z,1007.16
2018-01-22T10:00:33.130Z,1007.17
2018-01-22T10:01:33.145Z,1007.16
2018-01-22T10:03:33.182Z,1007.21
2018-01-22T10:04:33.190Z,1007.26
2018-01-22T10:05:33.202Z,1007.22
2018-01-22T10:06:33.218Z,1007.17
2018-01-22T10:07:33.241Z,1007.21
2018-01-22T10:08:33.257Z,1007.2
2018-01-22T10:09:33.263Z,1007.15
2018-01-22T10:10:33.285Z,1007.19
2018-01-22T10:11:33.293Z,1007.17
2018-01-22T10:12:33.307Z,1007.14
2018-01-22T10:13:33.321Z,1007.16
2018-01-22T10:14:33.336Z,1007.13
2018-01-22T10:15:33.351Z,1007.08
2018-01-22T10:16:33.373Z,1007.09
2018-01-22T10:17:33.387Z,1007
2018-01-22T10:19:33.410Z,1006.97
2018-01-22T10:20:33.432Z,1006.93
2018-01-22T10:21:33.439Z,1006.93
2018-01-22T10:22:33.454Z,1006.92
2018-01-22T10:23:33.476Z,1006.89
2018-01-22T10:24:33.485Z,1006.81
2018-01-22T10:25:33.499Z,1006.88
2018-01-22T10:26:33.516Z,1006.87
2018-01-22T10:27:33.528Z,1006.89
2018-01-22T10:28:33.543Z,1006.88
2018-01-22T10:29:33.559Z,1006.89
2018-01-22T10:30:33.573Z,1006.95
2018-01-22T10:31:33.587Z,1006.99
2018-01-22T10:32:33.608Z,1006.92
2018-01-22T10:33:33.618Z,1006.96
2018-01-22T10:35:33.646Z,1006.95
2018-01-22T10:36:33.662Z,1006.95
2018-01-22T10:37:33.676Z,1006.98
2018-01-22T10:38:33.738Z,1006.9
2018-01-22T10:39:33.716Z,1006.92
2018-01-22T10:40:33.732Z,1006.87
2018-01-22T10:41:33.742Z,1006.83
2018-01-22T10:42:33.755Z,1006.88
2018-01-22T10:43:33.765Z,1006.86
2018-01-22T10:44:33.780Z,1006.83
2018-01-22T10:45:33.800Z,1006.82
2018-01-22T10:46:33.809Z,1006.8
2018-01-22T10:47:33.823Z,1006.8
2018-01-22T10:48:33.846Z,1006.84
2018-01-22T10:49:33.852Z,1006.81
2018-01-22T10:51:33.882Z,1006.89
2018-01-22T10:52:33.898Z,1006.84
2018-01-22T10:53:33.911Z,1006.82
2018-01-22T10:54:33.927Z,1006.84
2018-01-22T10:55:33.941Z,1006.82
2018-01-22T10:56:33.965Z,1006.76
2018-01-22T10:57:33.977Z,1006.76
2018-01-22T10:58:33.986Z,1006.71
2018-01-22T10:59:34.001Z,1006.69
2018-01-22T11:00:34.022Z,1006.71
2018-01-22T11:01:34.036Z,1006.69
2018-01-22T11:02:34.051Z,1006.67
2018-01-22T11:03:34.060Z,1006.61
2018-01-22T11:04:34.076Z,1006.59
2018-01-22T11:06:34.113Z,1006.57
2018-01-22T11:07:34.119Z,1006.44
2018-01-22T11:08:34.134Z,1006.55
2018-01-22T11:09:34.150Z,1006.43
2018-01-22T11:10:34.166Z,1006.46
2018-01-22T11:11:34.180Z,1006.35
2018-01-22T11:12:34.195Z,1006.41
2018-01-22T11:13:34.210Z,1006.39
2018-01-22T11:14:34.232Z,1006.38
2018-01-22T11:15:34.248Z,1006.35
2018-01-22T11:16:34.261Z,1006.32
2018-01-22T11:17:34.270Z,1006.31
2018-01-22T11:18:34.291Z,1006.24
2018-01-22T11:19:34.298Z,1006.28
2018-01-22T11:20:34.314Z,1006.22
2018-01-22T11:21:34.336Z,1006.24
2018-01-22T11:22:34.342Z,1006.24
2018-01-22T11:23:34.365Z,1006.24
2018-01-22T11:24:34.373Z,1006.16
2018-01-22T11:25:34.389Z,1006.12
2018-01-22T11:26:34.410Z,1006.07
2018-01-22T11:27:34.417Z,1006.04
2018-01-22T11:28:34.433Z,1006.07
2018-01-22T11:29:34.448Z,1006.06
2018-01-22T11:30:34.461Z,1006.01
2018-01-22T11:31:34.483Z,1005.97
2018-01-22T11:32:34.491Z,1005.98
2018-01-22T11:33:34.507Z,1005.96
2018-01-22T11:34:34.520Z,1005.96
2018-01-22T11:35:34.542Z,1005.96
2018-01-22T11:36:34.550Z,1005.97
2018-01-22T11:38:34.579Z,1005.99
2018-01-22T11:39:34.594Z,1005.97
2018-01-22T11:40:34.609Z,1005.95
2018-01-22T11:41:34.723Z,1005.89
2018-01-22T11:42:34.646Z,1005.88
2018-01-22T11:43:34.753Z,1005.87
2018-01-22T11:44:34.674Z,1005.82
2018-01-22T11:45:34.688Z,1005.82
2018-01-22T11:46:34.704Z,1005.75
2018-01-22T11:47:34.712Z,1005.8
2018-01-22T11:48:34.731Z,1005.79
2018-01-22T11:49:34.740Z,1005.79
2018-01-22T11:50:34.756Z,1005.77
2018-01-22T11:51:34.770Z,1005.78
2018-01-22T11:52:34.785Z,1005.74
2018-01-22T11:54:34.822Z,1005.7
2018-01-22T11:55:34.828Z,1005.67
2018-01-22T11:56:34.850Z,1005.66
2018-01-22T11:57:34.859Z,1005.7
2018-01-22T11:58:34.872Z,1005.68
2018-01-22T11:59:34.888Z,1005.69
2018-01-22T12:00:34.902Z,1005.7
2018-01-22T12:01:34.941Z,1005.73
2018-01-22T12:02:34.931Z,1005.72
2018-01-22T12:03:34.947Z,1005.73
2018-01-22T12:04:34.967Z,1005.68
2018-01-22T12:05:34.983Z,1005.71
2018-01-22T12:06:34.990Z,1005.68
2018-01-22T12:07:35.008Z,1005.65
2018-01-22T12:08:35.021Z,1005.62
2018-01-22T12:10:35.056Z,1005.58
2018-01-22T12:11:35.063Z,1005.52
2018-01-22T12:12:35.086Z,1005.46
2018-01-22T12:13:35.098Z,1005.46
2018-01-22T12:14:35.108Z,1005.5
2018-01-22T12:15:35.122Z,1005.49
2018-01-22T12:16:35.138Z,1005.49
2018-01-22T12:17:35.158Z,1005.46
2018-01-22T12:18:35.166Z,1005.47
2018-01-22T12:19:35.187Z,1005.49
2018-01-22T12:20:35.201Z,1005.42
2018-01-22T12:21:35.215Z,1005.45
2018-01-22T12:22:35.224Z,1005.4
2018-01-22T12:23:35.239Z,1005.38
2018-01-22T12:24:35.258Z,1005.38
2018-01-22T12:26:35.283Z,1005.33
2018-01-22T12:27:35.403Z,1005.33
2018-01-22T12:28:35.319Z,1005.33
2018-01-22T12:29:35.331Z,1005.32
2018-01-22T12:30:35.339Z,1005.35
2018-01-22T12:31:35.356Z,1005.42
2018-01-22T12:32:35.373Z,1005.35
2018-01-22T12:33:35.382Z,1005.34
2018-01-22T12:34:35.403Z,1005.34
2018-01-22T12:35:35.418Z,1005.29
2018-01-22T12:36:35.432Z,1005.31
2018-01-22T12:37:35.440Z,1005.24
2018-01-22T12:38:35.455Z,1005.2
2018-01-22T12:39:35.472Z,1005.22
2018-01-22T12:41:35.500Z,1005.21
2018-01-22T12:42:35.520Z,1005.29
2018-01-22T12:43:35.529Z,1005.26
2018-01-22T12:44:35.542Z,1005.23
2018-01-22T12:45:35.563Z,1005.17
2018-01-22T12:46:35.578Z,1005.19
2018-01-22T12:47:35.592Z,1005.19
2018-01-22T12:48:35.607Z,1005.11
2018-01-22T12:49:35.620Z,1005.19